Terminal Aerodrome Forecast
Issued by NWS

Home | Current Version | Previous Version | Text Only | Print | Product List | Glossary On
Versions: 1 2 3 4 5 6 7 8 9 10 11 12 13 14 15
901
FTUS43 KLSX 301303 AAA
TAFCPS
TAF AMD
KCPS 301303Z 3013/3112 00000KT 6SM BR SKC
     FM301400 VRB05KT P6SM SCT040 BKN250
     FM302100 35003KT P6SM SCT050 BKN120=

USA.gov is the U.S. government's official web portal to all federal, state and local government web resources and services.